Date,TemperatureHighF,TemperatureAvgF,TemperatureLowF,DewpointHighF,DewpointAvgF,DewpointLowF,HumidityHigh,HumidityAvg,HumidityLow,PressureMaxIn,PressureMinIn,WindSpeedMaxMPH,WindSpeedAvgMPH,GustSpeedMaxMPH,PrecipitationSumIn
2013-7-1,79,69,58,54,52,49,87,56,38,0.00,40.00,11,3,22,0.00
2013-7-2,78,69,59,57,54,48,87,59,38,0.00,40.00,9,1,15,0.00
2013-7-3,76,66,54,57,54,49,95,67,42,0.00,40.00,4,0,9,0.00
2013-7-4,85,72,60,65,60,54,86,67,40,0.00,40.00,1,0,10,0.00
2013-7-5,85,76,64,67,62,59,90,65,42,0.00,40.00,6,1,14,0.00
2013-7-6,87,76,64,68,64,61,93,69,45,0.00,40.00,7,1,13,0.00
2013-7-7,90,79,68,74,69,65,94,72,50,0.00,40.00,4,0,14,0.00
2013-7-8,89,78,70,76,71,68,98,80,63,0.00,40.00,4,0,14,0.00
2013-7-9,86,79,75,78,74,71,95,86,72,0.00,40.00,7,0,19,0.00
2013-7-10,84,76,65,76,63,-100,97,69,47,0.00,40.00,8,3,14,0.00
2013-7-11,82,72,63,64,59,54,94,68,40,0.00,40.00,6,1,12,0.00
2013-7-12,83,72,59,60,58,54,95,65,38,0.00,40.00,7,0,14,0.00
2013-7-13,84,73,59,64,60,56,91,66,44,0.00,40.00,6,1,13,0.00
2013-7-14,87,77,66,71,66,62,87,70,52,0.00,40.00,3,0,10,0.00
2013-7-15,90,80,71,75,71,69,94,76,55,0.00,40.00,3,0,11,0.00
2013-7-16,91,85,73,76,74,72,95,71,55,0.00,40.00,1,0,9,0.00
2013-7-17,94,84,74,76,73,71,91,71,50,0.00,40.00,2,0,5,0.00
2013-7-18,96,86,74,76,73,70,93,67,46,0.00,40.00,4,0,11,0.00
2013-7-19,95,85,72,74,71,69,96,65,45,0.00,40.00,9,1,24,0.00
2013-7-20,87,76,67,71,64,-100,95,69,44,0.00,40.00,5,0,11,0.00
2013-7-21,85,75,66,72,67,63,94,78,56,0.00,40.00,6,1,14,0.00
2013-7-22,89,77,66,73,69,65,98,76,49,0.00,40.00,10,0,19,0.00
2013-7-23,77,71,65,66,62,56,98,75,52,0.00,40.00,12,3,17,0.00
2013-7-24,76,68,58,59,55,52,92,67,45,0.00,40.00,4,0,11,0.00
2013-7-25,84,70,58,63,59,55,94,70,47,0.00,40.00,3,0,10,0.00
2013-7-26,82,69,64,71,63,56,98,82,55,0.00,40.00,6,1,19,0.00
2013-7-27,66,61,58,58,52,47,92,73,51,0.00,40.00,10,2,19,0.00
2013-7-28,72,63,56,55,51,47,87,66,49,0.00,40.00,7,2,19,0.00
2013-7-29,77,66,53,57,54,52,97,69,43,0.00,40.00,1,0,8,0.00
2013-7-30,68,66,62,66,62,55,98,89,66,0.00,40.00,4,0,9,0.00
2013-7-31,79,71,66,68,66,64,99,85,65,0.00,40.00,5,1,11,0.00